Time;durP1;ratioP1;P1;durP2;ratioP2;P2;SDS_P1;SDS_P2;PMS_P1;PMS_P2;Temp;Humidity;BMP_temperature;BMP_pressure;BME280_temperature;BME280_humidity;BME280_pressure;Samples;Min_cycle;Max_cycle;Signal;HPM_P1;HPM_P2
2023/06/03 00:01:34;;;;;;;6.40;4.90;;;26.20;99.90;;;;;;5034883;28;20501;-51
2023/06/03 00:04:00;;;;;;;5.93;4.53;;;26.20;99.90;;;;;;5034645;28;20104;-51
2023/06/03 00:06:25;;;;;;;8.25;4.72;;;26.20;99.90;;;;;;5016084;28;20430;-51
2023/06/03 00:08:51;;;;;;;6.03;4.68;;;26.20;99.90;;;;;;5034580;28;20017;-49
2023/06/03 00:11:17;;;;;;;7.55;5.28;;;26.20;99.90;;;;;;5034577;28;20028;-51
2023/06/03 00:13:43;;;;;;;7.28;5.05;;;26.20;99.90;;;;;;5034175;28;20021;-51
2023/06/03 00:16:09;;;;;;;7.57;5.63;;;26.20;99.90;;;;;;5034031;28;20041;-51
2023/06/03 00:18:34;;;;;;;7.88;5.30;;;26.20;99.90;;;;;;5034264;28;20067;-51
2023/06/03 00:21:01;;;;;;;6.03;5.18;;;26.20;99.90;;;;;;5032917;28;20496;-51
2023/06/03 00:23:27;;;;;;;8.00;5.40;;;26.20;99.90;;;;;;5034053;28;20064;-51
2023/06/03 00:25:53;;;;;;;8.23;5.45;;;26.20;99.90;;;;;;5034103;28;20033;-51
2023/06/03 00:28:19;;;;;;;8.48;5.43;;;26.20;99.90;;;;;;5034046;28;20025;-51
2023/06/03 00:30:45;;;;;;;7.20;5.40;;;26.20;99.90;;;;;;5032578;28;20021;-49
2023/06/03 00:33:11;;;;;;;7.00;5.10;;;26.20;99.90;;;;;;5033859;28;20032;-51
2023/06/03 00:35:37;;;;;;;6.50;5.22;;;26.20;99.90;;;;;;5033785;28;20053;-51
2023/06/03 00:38:03;;;;;;;6.90;4.95;;;26.20;99.90;;;;;;5033829;28;20033;-51
2023/06/03 00:40:29;;;;;;;6.18;5.28;;;26.20;99.90;;;;;;5033899;28;20056;-51
2023/06/03 00:42:54;;;;;;;5.55;4.80;;;26.10;99.90;;;;;;5033756;28;20407;-51
2023/06/03 00:45:20;;;;;;;6.18;5.07;;;26.10;99.90;;;;;;5033412;28;20025;-51
2023/06/03 00:47:47;;;;;;;6.05;4.85;;;26.10;99.90;;;;;;5033706;28;20378;-51
2023/06/03 00:50:14;;;;;;;6.75;4.95;;;26.10;99.90;;;;;;5033652;28;20025;-51
2023/06/03 00:52:41;;;;;;;7.57;5.28;;;26.10;99.90;;;;;;5033420;28;20021;-51
2023/06/03 00:55:07;;;;;;;5.90;5.30;;;26.10;99.90;;;;;;5033711;28;20030;-51
2023/06/03 00:57:33;;;;;;;7.43;4.80;;;26.10;99.90;;;;;;5018867;28;20449;-52
2023/06/03 01:02:43;;;;;;;7.63;5.57;;;26.10;99.90;;;;;;5032643;28;20045;-54
2023/06/03 01:05:11;;;;;;;7.03;5.32;;;26.10;99.90;;;;;;5031910;28;20504;-54
2023/06/03 01:07:56;;;;;;;6.00;4.88;;;26.10;99.90;;;;;;5033355;28;20343;-53
2023/06/03 01:10:40;;;;;;;5.60;5.00;;;26.10;99.90;;;;;;5033019;28;20032;-54
2023/06/03 01:13:22;;;;;;;7.82;5.25;;;26.10;99.90;;;;;;5033288;28;20351;-54
2023/06/03 01:15:54;;;;;;;6.43;5.03;;;26.10;99.90;;;;;;5033324;28;20432;-55
2023/06/03 01:18:20;;;;;;;6.53;5.38;;;26.10;99.90;;;;;;5031227;28;20095;-61
2023/06/03 01:20:48;;;;;;;6.47;5.15;;;26.10;99.90;;;;;;5030263;28;20033;-55
2023/06/03 01:23:28;;;;;;;;;;;26.10;99.90;;;;;;5033475;28;20025;-56
2023/06/03 01:25:57;;;;;;;5.32;4.15;;;26.10;99.90;;;;;;5033205;28;19917;-56
2023/06/03 01:28:24;;;;;;;5.30;4.80;;;26.10;99.90;;;;;;5033417;28;20025;-56
2023/06/03 01:30:51;;;;;;;4.90;4.40;;;26.10;99.90;;;;;;5031454;28;20477;-55
2023/06/03 01:33:19;;;;;;;5.65;4.65;;;26.00;99.90;;;;;;5033179;28;20538;-56
2023/06/03 01:35:47;;;;;;;6.80;4.93;;;26.00;99.90;;;;;;5032872;28;20025;-56
2023/06/03 01:38:13;;;;;;;9.65;5.50;;;26.00;99.90;;;;;;5032945;28;20033;-55
2023/06/03 01:40:39;;;;;;;7.20;4.93;;;26.00;99.90;;;;;;5032789;28;20127;-57
2023/06/03 01:43:06;;;;;;;6.82;4.55;;;26.00;99.90;;;;;;5032961;28;20018;-57
2023/06/03 01:45:32;;;;;;;6.63;4.90;;;26.00;99.90;;;;;;5032658;28;20022;-57
2023/06/03 01:47:59;;;;;;;5.47;4.97;;;26.00;99.90;;;;;;5032995;28;20030;-57
2023/06/03 01:50:25;;;;;;;5.70;5.05;;;26.00;99.90;;;;;;5032667;28;20049;-58
2023/06/03 01:52:51;;;;;;;6.53;5.03;;;26.00;99.90;;;;;;5031711;28;20060;-57
2023/06/03 01:55:17;;;;;;;7.68;5.05;;;26.00;99.90;;;;;;5032528;28;20021;-55
2023/06/03 01:57:43;;;;;;;5.57;4.95;;;26.00;99.90;;;;;;5032768;28;20473;-56
2023/06/03 02:00:10;;;;;;;6.30;5.18;;;26.00;99.90;;;;;;5033200;28;20434;-56
2023/06/03 02:02:36;;;;;;;8.88;5.43;;;26.00;99.90;;;;;;5032666;28;20042;-56
2023/06/03 02:05:03;;;;;;;4.97;4.45;;;26.00;99.90;;;;;;5032648;28;20029;-56
2023/06/03 02:07:32;;;;;;;7.25;5.13;;;26.00;99.90;;;;;;5032638;28;20025;-55
2023/06/03 02:09:58;;;;;;;6.95;4.97;;;26.00;99.90;;;;;;5032360;28;20038;-56
2023/06/03 02:12:24;;;;;;;6.70;4.63;;;26.00;99.90;;;;;;5032647;28;20388;-56
2023/06/03 02:14:56;;;;;;;5.85;4.68;;;25.90;99.90;;;;;;5032714;28;20100;-56
2023/06/03 02:17:26;;;;;;;6.85;4.55;;;25.90;99.90;;;;;;5032559;28;20029;-56
2023/06/03 02:19:52;;;;;;;7.53;5.20;;;26.00;99.90;;;;;;5032565;28;20025;-56
2023/06/03 02:22:18;;;;;;;6.35;4.55;;;26.00;99.90;;;;;;5032646;28;20036;-56
2023/06/03 02:24:47;;;;;;;5.95;4.97;;;26.00;99.90;;;;;;5032176;28;20386;-56
2023/06/03 02:27:19;;;;;;;7.38;5.07;;;25.90;99.90;;;;;;5032373;28;20473;-56
2023/06/03 02:29:50;;;;;;;6.28;5.20;;;26.00;99.90;;;;;;5035736;28;20477;-56
2023/06/03 02:32:16;;;;;;;5.70;4.88;;;26.00;99.90;;;;;;5036108;28;20021;-55
2023/06/03 02:34:43;;;;;;;6.82;4.97;;;25.90;99.90;;;;;;5036135;28;20024;-55
2023/06/03 02:37:10;;;;;;;4.72;4.22;;;25.90;99.90;;;;;;5036136;28;20018;-54
2023/06/03 02:39:36;;;;;;;5.57;4.53;;;25.90;99.90;;;;;;5035954;28;20054;-54
2023/06/03 02:42:03;;;;;;;6.25;4.72;;;25.90;99.90;;;;;;5036016;28;20532;-54
2023/06/03 02:44:29;;;;;;;6.65;4.80;;;25.90;99.90;;;;;;5035900;28;20029;-54
2023/06/03 02:46:55;;;;;;;6.50;5.07;;;25.90;99.90;;;;;;5035739;28;20100;-54
2023/06/03 02:49:21;;;;;;;5.95;4.63;;;25.90;99.90;;;;;;5036115;28;20101;-54
2023/06/03 02:51:46;;;;;;;6.03;4.75;;;25.90;99.90;;;;;;5035944;28;20068;-55
2023/06/03 02:54:12;;;;;;;5.90;4.78;;;25.90;99.90;;;;;;5035764;28;20022;-55
2023/06/03 02:56:38;;;;;;;8.00;4.95;;;25.90;99.90;;;;;;5035731;28;20021;-55
2023/06/03 02:59:05;;;;;;;6.28;4.97;;;25.90;99.90;;;;;;5036040;28;20026;-55
2023/06/03 03:01:31;;;;;;;5.30;4.22;;;25.90;99.90;;;;;;5046730;22;20058;-51
2023/06/03 03:03:57;;;;;;;6.00;5.03;;;25.90;99.90;;;;;;5035386;28;20021;-50
2023/06/03 03:06:24;;;;;;;4.93;4.38;;;25.90;99.90;;;;;;5035855;28;20044;-50
2023/06/03 03:08:51;;;;;;;5.97;4.67;;;25.90;99.90;;;;;;5035111;28;20041;-51
2023/06/03 03:11:17;;;;;;;5.80;5.05;;;25.90;99.90;;;;;;5035738;28;20321;-51
2023/06/03 03:13:43;;;;;;;6.72;4.55;;;25.90;99.90;;;;;;5035418;28;20025;-51
2023/06/03 03:16:10;;;;;;;5.73;5.10;;;25.90;99.90;;;;;;5035345;28;20083;-53
2023/06/03 03:18:36;;;;;;;6.07;4.32;;;25.90;99.90;;;;;;5035290;28;20505;-48
2023/06/03 03:21:03;;;;;;;7.37;5.27;;;25.90;99.90;;;;;;5035495;28;20033;-49
2023/06/03 03:23:29;;;;;;;6.53;5.22;;;25.90;99.90;;;;;;5035350;28;20033;-48
2023/06/03 03:26:00;;;;;;;7.13;5.00;;;25.90;99.90;;;;;;5035394;28;20041;-48
2023/06/03 03:28:26;;;;;;;5.68;4.78;;;25.80;99.90;;;;;;5035106;28;20018;-50
2023/06/03 03:30:55;;;;;;;5.60;4.90;;;25.80;99.90;;;;;;5034927;28;20022;-49
2023/06/03 03:33:21;;;;;;;5.53;4.72;;;25.80;99.90;;;;;;5035188;28;20067;-49
2023/06/03 03:35:49;;;;;;;7.70;5.32;;;25.80;99.90;;;;;;5034868;28;20053;-49
2023/06/03 03:38:15;;;;;;;8.52;5.25;;;25.80;99.90;;;;;;5033450;28;20100;-50
2023/06/03 03:40:41;;;;;;;6.55;4.68;;;25.80;99.90;;;;;;5033860;28;20056;-50
2023/06/03 03:43:19;;;;;;;5.82;4.72;;;25.80;99.90;;;;;;5033688;28;20110;-50
2023/06/03 03:45:45;;;;;;;7.05;4.78;;;25.80;99.90;;;;;;5034462;28;20126;-49
2023/06/03 03:48:16;;;;;;;5.22;4.65;;;25.80;99.90;;;;;;5033756;28;20028;-50
2023/06/03 03:50:48;;;;;;;7.03;5.47;;;25.80;99.90;;;;;;5033658;28;20503;-50
2023/06/03 03:53:15;;;;;;;6.88;5.10;;;25.80;99.90;;;;;;5034419;28;20033;-49
2023/06/03 03:55:47;;;;;;;5.45;4.80;;;25.80;99.90;;;;;;5034567;28;20096;-50
2023/06/03 03:58:40;;;;;;;7.13;4.72;;;25.80;99.90;;;;;;5034774;28;20032;-50
2023/06/03 04:01:12;;;;;;;7.50;5.05;;;25.80;99.90;;;;;;5035014;28;20111;-50
2023/06/03 04:03:42;;;;;;;7.75;5.45;;;25.80;99.90;;;;;;5034190;28;20075;-49
2023/06/03 04:06:09;;;;;;;5.68;4.63;;;25.80;99.90;;;;;;5034600;28;20389;-50
2023/06/03 04:08:45;;;;;;;5.25;4.55;;;25.80;99.90;;;;;;5032989;28;20018;-50
2023/06/03 04:11:17;;;;;;;6.85;5.10;;;25.80;99.90;;;;;;5034568;28;20132;-50
2023/06/03 04:13:43;;;;;;;5.97;4.70;;;25.80;99.90;;;;;;5034402;28;20466;-49
2023/06/03 04:16:10;;;;;;;5.90;5.30;;;25.80;99.90;;;;;;5034125;28;20075;-49
2023/06/03 04:18:40;;;;;;;5.85;5.25;;;25.70;99.90;;;;;;5033860;28;20056;-49
2023/06/03 04:21:06;;;;;;;7.18;5.25;;;25.80;99.90;;;;;;5034320;28;20025;-51
2023/06/03 04:23:32;;;;;;;6.05;4.82;;;25.80;99.90;;;;;;5034197;28;20017;-50
2023/06/03 04:25:58;;;;;;;5.82;5.13;;;25.80;99.90;;;;;;5033788;28;20084;-50
2023/06/03 04:28:24;;;;;;;6.13;4.60;;;25.80;99.90;;;;;;5033868;28;20017;-49
2023/06/03 04:30:50;;;;;;;7.03;4.50;;;25.80;99.90;;;;;;5033967;28;20528;-50
2023/06/03 04:33:16;;;;;;;8.13;5.00;;;25.80;99.90;;;;;;5033898;28;20071;-50
2023/06/03 04:35:41;;;;;;;5.50;4.65;;;25.80;99.90;;;;;;5034187;28;20025;-50
2023/06/03 04:38:07;;;;;;;6.72;5.18;;;25.70;99.90;;;;;;5033725;28;20052;-49
2023/06/03 04:40:33;;;;;;;6.22;5.05;;;25.70;99.90;;;;;;5033961;28;20025;-49
2023/06/03 04:43:03;;;;;;;6.15;4.85;;;25.70;99.90;;;;;;5016223;28;20068;-49
2023/06/03 04:45:31;;;;;;;6.07;4.60;;;25.70;99.90;;;;;;5033552;28;20064;-49
2023/06/03 04:48:01;;;;;;;5.90;4.65;;;25.70;99.90;;;;;;5034040;28;20028;-49
2023/06/03 04:50:28;;;;;;;5.47;4.75;;;25.80;99.90;;;;;;5033720;28;20017;-49
2023/06/03 04:52:56;;;;;;;5.88;4.78;;;25.70;99.90;;;;;;5033437;28;20048;-49
2023/06/03 04:55:23;;;;;;;5.20;4.70;;;25.70;99.90;;;;;;5033529;28;20040;-50
2023/06/03 04:57:50;;;;;;;5.88;4.82;;;25.70;99.90;;;;;;5032328;28;20018;-49
2023/06/03 05:00:19;;;;;;;;;;;25.70;99.90;;;;;;5033576;28;20575;-48
2023/06/03 05:02:54;;;;;;;5.60;4.65;;;25.70;99.90;;;;;;5033665;28;19913;-49
2023/06/03 05:05:24;;;;;;;6.05;4.70;;;25.70;99.90;;;;;;5033640;28;20029;-49
2023/06/03 05:07:51;;;;;;;5.72;4.68;;;25.70;99.90;;;;;;5033325;28;20378;-49
2023/06/03 05:10:17;;;;;;;5.55;4.47;;;25.70;99.90;;;;;;5033042;28;20025;-50
2023/06/03 05:12:45;;;;;;;5.47;4.85;;;25.70;99.90;;;;;;5033374;28;20029;-49
2023/06/03 05:15:13;;;;;;;7.03;5.28;;;25.70;99.90;;;;;;5032897;28;20132;-50
2023/06/03 05:17:39;;;;;;;6.75;5.25;;;25.70;99.90;;;;;;5033400;28;20382;-50
2023/06/03 05:20:09;;;;;;;5.47;4.72;;;25.70;99.90;;;;;;5033255;28;20087;-50
2023/06/03 05:22:35;;;;;;;5.57;4.78;;;25.70;99.90;;;;;;5033022;28;20036;-50
2023/06/03 05:25:05;;;;;;;5.68;4.88;;;25.70;99.90;;;;;;5032872;28;20099;-51
2023/06/03 05:27:31;;;;;;;5.80;4.43;;;25.70;99.90;;;;;;5033416;28;20389;-50
2023/06/03 05:29:57;;;;;;;6.57;4.80;;;25.70;99.90;;;;;;5032793;28;20137;-52
2023/06/03 05:32:23;;;;;;;5.60;4.43;;;25.70;99.90;;;;;;5033180;28;20022;-50
2023/06/03 05:34:49;;;;;;;5.95;4.43;;;25.70;99.90;;;;;;5033241;28;20029;-51
2023/06/03 05:37:15;;;;;;;6.38;4.55;;;25.70;99.90;;;;;;5032986;28;20018;-56
2023/06/03 05:39:41;;;;;;;5.30;4.45;;;25.70;99.90;;;;;;5033023;28;20026;-52
2023/06/03 05:42:06;;;;;;;5.38;4.85;;;25.70;99.90;;;;;;5033089;28;20021;-50
2023/06/03 05:44:32;;;;;;;5.85;4.50;;;25.70;99.90;;;;;;5033130;28;20408;-50
2023/06/03 05:46:58;;;;;;;7.57;4.65;;;25.70;99.90;;;;;;5032698;28;20025;-50
2023/06/03 05:49:24;;;;;;;5.28;4.45;;;25.70;99.90;;;;;;5033165;28;20083;-50
2023/06/03 05:51:50;;;;;;;6.05;5.03;;;25.60;99.90;;;;;;5032668;28;20371;-51
2023/06/03 05:54:15;;;;;;;5.18;4.38;;;25.70;99.90;;;;;;5032755;28;20235;-52
2023/06/03 05:56:41;;;;;;;7.50;4.43;;;25.70;99.90;;;;;;5032467;28;20021;-50
2023/06/03 05:59:07;;;;;;;5.93;4.43;;;25.70;99.90;;;;;;5032757;28;20018;-52
2023/06/03 06:01:33;;;;;;;4.55;4.15;;;25.70;99.90;;;;;;5032316;28;20124;-51
2023/06/03 06:04:00;;;;;;;5.95;4.75;;;25.70;99.90;;;;;;5021995;28;20107;-51
2023/06/03 06:06:25;;;;;;;5.80;4.60;;;25.70;99.90;;;;;;5036818;28;20040;-54
2023/06/03 06:08:51;;;;;;;6.82;4.60;;;25.70;99.90;;;;;;5036330;28;20417;-51
2023/06/03 06:11:18;;;;;;;4.97;4.40;;;25.70;99.90;;;;;;5036748;28;20025;-52
2023/06/03 06:13:44;;;;;;;5.60;4.13;;;25.70;99.90;;;;;;5036664;28;20501;-49
2023/06/03 06:16:10;;;;;;;5.10;4.18;;;25.70;99.90;;;;;;5036533;28;20022;-52
2023/06/03 06:18:35;;;;;;;4.38;3.95;;;25.70;99.90;;;;;;5036464;28;20021;-50
2023/06/03 06:21:01;;;;;;;5.43;4.05;;;25.70;99.90;;;;;;5036576;28;20560;-50
2023/06/03 06:23:28;;;;;;;4.72;4.20;;;25.70;99.90;;;;;;5035959;28;20025;-50
2023/06/03 06:25:55;;;;;;;4.65;3.92;;;25.70;99.90;;;;;;5036308;28;20351;-50
2023/06/03 06:28:24;;;;;;;5.35;4.10;;;25.70;99.90;;;;;;5036339;28;20017;-51
2023/06/03 06:30:54;;;;;;;6.53;4.60;;;25.70;99.90;;;;;;5035994;28;20053;-50
2023/06/03 06:33:21;;;;;;;4.80;4.30;;;25.70;99.90;;;;;;5035996;28;20107;-50
2023/06/03 06:35:47;;;;;;;4.82;4.22;;;25.70;99.90;;;;;;5036247;28;20021;-50
2023/06/03 06:38:13;;;;;;;5.10;4.43;;;25.70;99.90;;;;;;5035905;28;20103;-50
2023/06/03 06:40:40;;;;;;;4.35;3.78;;;25.70;99.90;;;;;;5036210;28;20048;-51
2023/06/03 06:43:12;;;;;;;4.78;4.28;;;25.70;99.90;;;;;;5036086;28;20031;-50
2023/06/03 06:45:38;;;;;;;4.38;3.95;;;25.70;99.90;;;;;;5021275;28;20033;-51
2023/06/03 06:48:06;;;;;;;6.50;4.25;;;25.70;99.90;;;;;;5036107;28;20025;-51
2023/06/03 06:50:50;;;;;;;4.82;3.78;;;25.70;99.90;;;;;;5035792;28;20021;-51
2023/06/03 06:53:20;;;;;;;4.43;3.80;;;25.70;99.90;;;;;;5035862;28;20087;-51
2023/06/03 06:55:56;;;;;;;4.60;4.10;;;25.70;99.90;;;;;;5035929;28;20023;-51
2023/06/03 06:58:25;;;;;;;4.50;3.85;;;25.70;99.90;;;;;;5034282;28;20036;-50
2023/06/03 07:00:51;;;;;;;5.07;4.13;;;25.70;99.90;;;;;;5035449;28;20478;-51
2023/06/03 07:03:19;;;;;;;4.45;4.03;;;25.70;99.90;;;;;;5035699;28;20033;-50
2023/06/03 07:05:52;;;;;;;4.72;4.03;;;25.70;99.90;;;;;;5035595;28;20069;-50
2023/06/03 07:08:18;;;;;;;4.82;3.88;;;25.70;99.90;;;;;;5035092;28;20104;-50
2023/06/03 07:10:45;;;;;;;4.35;3.95;;;25.70;99.90;;;;;;5035720;28;20080;-50
2023/06/03 07:13:15;;;;;;;4.10;3.42;;;25.70;99.90;;;;;;5035656;28;20025;-50
2023/06/03 07:15:41;;;;;;;5.38;4.03;;;25.70;99.90;;;;;;5035303;28;20486;-50
2023/06/03 07:18:09;;;;;;;4.25;3.78;;;25.70;99.90;;;;;;5035687;28;20034;-50
2023/06/03 07:20:46;;;;;;;4.43;3.88;;;25.70;99.90;;;;;;5035263;28;20029;-50
2023/06/03 07:23:27;;;;;;;4.22;3.60;;;25.70;99.90;;;;;;5035064;28;20041;-51
2023/06/03 07:25:54;;;;;;;7.68;4.32;;;25.70;99.90;;;;;;5035336;28;20037;-50
2023/06/03 07:28:28;;;;;;;4.78;3.75;;;25.70;99.90;;;;;;5035299;28;20013;-50
2023/06/03 07:30:54;;;;;;;4.55;3.50;;;25.80;99.90;;;;;;5035064;28;20120;-50
2023/06/03 07:33:33;;;;;;;4.00;3.60;;;25.80;99.90;;;;;;5035221;28;20029;-52
2023/06/03 07:36:02;;;;;;;4.55;3.78;;;25.80;99.90;;;;;;5034923;28;20029;-50
2023/06/03 07:38:37;;;;;;;4.60;3.85;;;25.80;99.90;;;;;;5034752;28;20556;-51
2023/06/03 07:41:03;;;;;;;3.58;3.20;;;25.80;99.90;;;;;;5035069;28;20036;-51
2023/06/03 07:43:29;;;;;;;4.18;3.67;;;25.80;99.90;;;;;;5034880;28;20017;-50
2023/06/03 07:45:55;;;;;;;4.97;3.50;;;25.80;99.90;;;;;;5034818;28;20386;-51
2023/06/03 07:48:23;;;;;;;3.90;3.40;;;25.80;99.90;;;;;;5034728;28;20022;-51
2023/06/03 07:50:48;;;;;;;;;;;25.80;99.90;;;;;;5035310;28;20390;-50
2023/06/03 07:53:22;;;;;;;5.40;3.75;;;25.80;99.90;;;;;;5034170;28;19913;-50
2023/06/03 07:55:50;;;;;;;4.20;3.78;;;25.80;99.90;;;;;;5034864;28;20018;-51
2023/06/03 07:58:16;;;;;;;5.35;4.10;;;25.80;99.90;;;;;;5034650;28;20028;-51
2023/06/03 08:00:49;;;;;;;4.15;3.72;;;25.80;99.90;;;;;;5033601;28;20531;-51
2023/06/03 08:03:18;;;;;;;3.55;3.25;;;25.80;99.90;;;;;;5034605;28;20033;-51
2023/06/03 08:05:47;;;;;;;4.72;3.72;;;25.80;99.90;;;;;;5034314;28;20448;-50
2023/06/03 08:08:14;;;;;;;4.60;3.63;;;25.80;99.90;;;;;;5034496;28;20022;-50
2023/06/03 08:10:42;;;;;;;4.97;3.80;;;25.80;99.90;;;;;;5034632;28;20062;-51
2023/06/03 08:13:08;;;;;;;3.70;3.40;;;25.80;99.90;;;;;;5034719;28;20375;-51
2023/06/03 08:15:35;;;;;;;4.05;3.17;;;25.80;99.90;;;;;;5033983;28;20028;-51
2023/06/03 08:18:05;;;;;;;4.78;3.92;;;25.80;99.90;;;;;;5034064;28;20026;-51
2023/06/03 08:20:33;;;;;;;5.57;3.80;;;25.80;99.90;;;;;;5034221;28;20112;-51
2023/06/03 08:23:00;;;;;;;3.92;3.53;;;25.80;99.90;;;;;;5033907;28;20017;-52
2023/06/03 08:25:26;;;;;;;4.55;3.53;;;25.80;99.90;;;;;;5033873;28;20025;-51
2023/06/03 08:27:52;;;;;;;4.65;3.40;;;25.80;99.90;;;;;;5032686;28;20022;-51
2023/06/03 08:30:22;;;;;;;4.50;3.80;;;25.80;99.90;;;;;;5033689;28;20029;-52
2023/06/03 08:32:49;;;;;;;4.13;3.58;;;25.80;99.90;;;;;;5034111;28;20018;-51
2023/06/03 08:35:19;;;;;;;4.15;3.63;;;25.80;99.90;;;;;;5033662;28;20017;-51
2023/06/03 08:37:45;;;;;;;5.30;4.00;;;25.80;99.90;;;;;;5034066;28;20108;-51
2023/06/03 08:40:13;;;;;;;4.45;3.65;;;25.80;99.90;;;;;;5033883;28;20371;-51
2023/06/03 08:42:43;;;;;;;6.03;4.30;;;25.80;99.90;;;;;;5033896;28;20553;-51
2023/06/03 08:45:16;;;;;;;4.53;4.13;;;25.80;99.90;;;;;;5033249;28;20474;-52
2023/06/03 08:48:04;;;;;;;4.78;4.00;;;25.80;99.90;;;;;;5034068;28;20348;-51
2023/06/03 08:50:31;;;;;;;;;;;25.80;99.90;;;;;;5034008;28;20074;-51
2023/06/03 08:52:58;;;;;;;5.78;4.70;;;25.80;99.90;;;;;;5033432;28;19905;-51
2023/06/03 08:55:24;;;;;;;5.73;4.57;;;25.80;99.90;;;;;;5033502;28;20021;-51
2023/06/03 08:58:16;;;;;;;5.28;4.03;;;25.80;99.90;;;;;;5033656;28;20037;-51
2023/06/03 09:00:43;;;;;;;6.88;5.10;;;25.80;99.90;;;;;;5020142;28;20033;-51
2023/06/03 09:03:11;;;;;;;6.20;4.33;;;25.80;99.90;;;;;;5033548;28;20022;-51
2023/06/03 09:05:38;;;;;;;5.95;4.55;;;25.80;99.90;;;;;;5015701;28;20213;-49
2023/06/03 09:08:05;;;;;;;6.95;4.85;;;25.80;99.90;;;;;;5033225;28;20386;-51
2023/06/03 09:10:32;;;;;;;7.35;4.50;;;25.80;99.90;;;;;;5033405;28;20026;-50
2023/06/03 09:12:58;;;;;;;7.95;5.18;;;25.80;99.90;;;;;;5033458;28;20025;-50
2023/06/03 09:15:24;;;;;;;5.43;4.32;;;25.80;99.90;;;;;;5031797;28;20100;-50
2023/06/03 09:17:51;;;;;;;7.70;5.57;;;25.80;99.90;;;;;;5033200;28;20018;-50
2023/06/03 09:20:17;;;;;;;6.30;5.13;;;25.90;99.90;;;;;;5033016;28;20029;-49
2023/06/03 09:22:46;;;;;;;7.35;5.22;;;25.90;99.90;;;;;;5031746;28;20071;-50
2023/06/03 09:25:13;;;;;;;7.72;5.47;;;25.80;99.90;;;;;;5032964;28;20026;-50
2023/06/03 09:27:40;;;;;;;7.50;4.95;;;25.90;99.90;;;;;;5033011;28;20053;-50
2023/06/03 09:30:07;;;;;;;6.38;5.30;;;25.90;99.90;;;;;;5032690;28;20021;-50
2023/06/03 09:32:35;;;;;;;5.28;4.25;;;25.90;99.90;;;;;;5033227;28;20025;-49
2023/06/03 09:35:04;;;;;;;7.15;4.97;;;25.90;99.90;;;;;;5032897;28;20021;-49
2023/06/03 09:37:34;;;;;;;6.43;4.75;;;25.90;99.90;;;;;;5032386;28;20017;-49
2023/06/03 09:40:00;;;;;;;10.07;5.07;;;25.90;99.90;;;;;;5032632;28;20527;-49
2023/06/03 09:42:43;;;;;;;6.63;4.97;;;25.90;99.90;;;;;;5031814;28;20184;-50
2023/06/03 09:45:29;;;;;;;8.75;5.35;;;25.90;99.90;;;;;;5032550;28;20037;-52
2023/06/03 09:47:56;;;;;;;8.13;5.18;;;25.90;99.90;;;;;;5032913;28;20346;-50
2023/06/03 09:50:23;;;;;;;5.68;4.82;;;25.90;99.90;;;;;;5032760;28;20477;-51
2023/06/03 09:52:49;;;;;;;6.43;4.95;;;25.90;99.90;;;;;;5032644;28;20041;-51
2023/06/03 09:55:17;;;;;;;6.53;4.60;;;25.90;99.90;;;;;;5032923;28;20446;-52
2023/06/03 09:58:00;;;;;;;8.02;5.35;;;25.90;99.90;;;;;;5032745;28;20026;-52
2023/06/03 10:00:26;;;;;;;5.43;4.47;;;25.90;99.90;;;;;;5032455;28;20017;-51
2023/06/03 10:03:05;;;;;;;6.47;4.88;;;25.90;99.90;;;;;;5032939;28;20488;-52
2023/06/03 10:05:31;;;;;;;7.75;4.72;;;25.90;99.90;;;;;;5032628;28;20105;-51
2023/06/03 10:07:57;;;;;;;6.38;4.93;;;25.90;99.90;;;;;;5031519;28;20030;-51
2023/06/03 10:10:23;;;;;;;6.53;4.97;;;25.90;99.90;;;;;;5032642;28;20080;-52
2023/06/03 10:12:50;;;;;;;8.23;5.15;;;25.90;99.90;;;;;;5033005;28;20029;-53
2023/06/03 10:15:37;;;;;;;6.10;4.60;;;25.90;99.90;;;;;;5032683;28;20437;-53
2023/06/03 10:18:03;;;;;;;6.38;5.18;;;25.90;99.90;;;;;;5032941;28;20742;-50
2023/06/03 10:20:34;;;;;;;5.35;4.50;;;25.90;99.90;;;;;;5032590;28;20021;-52
2023/06/03 10:23:03;;;;;;;9.63;5.20;;;25.90;99.90;;;;;;5032332;28;20057;-52
2023/06/03 10:25:41;;;;;;;5.93;4.78;;;25.90;99.90;;;;;;5032420;28;20018;-51
2023/06/03 10:28:07;;;;;;;6.88;5.07;;;25.90;99.90;;;;;;5032484;28;20034;-52
2023/06/03 10:30:34;;;;;;;7.97;5.28;;;25.90;99.90;;;;;;5032354;28;20057;-50
2023/06/03 10:33:04;;;;;;;6.72;5.07;;;25.90;99.90;;;;;;5032383;28;20053;-51
2023/06/03 10:35:32;;;;;;;6.70;4.90;;;25.90;99.90;;;;;;5032506;28;20057;-51
2023/06/03 10:38:01;;;;;;;;;;;26.00;99.90;;;;;;5031372;28;20026;-51
2023/06/03 10:40:28;;;;;;;7.75;5.60;;;26.00;99.90;;;;;;5032530;28;19911;-51
2023/06/03 10:42:55;;;;;;;6.83;5.47;;;26.00;99.90;;;;;;5047851;28;20025;-51
2023/06/03 10:45:22;;;;;;;8.80;5.63;;;26.00;99.90;;;;;;5032053;28;20021;-51
2023/06/03 10:47:52;;;;;;;7.05;5.47;;;26.00;99.90;;;;;;5030919;28;20026;-50
2023/06/03 10:50:35;;;;;;;7.75;5.32;;;26.00;99.90;;;;;;5034511;28;20032;-51
2023/06/03 10:53:35;;;;;;;7.22;5.28;;;26.00;99.90;;;;;;5035837;28;20412;-51
2023/06/03 10:56:21;;;;;;;7.45;5.88;;;26.00;99.90;;;;;;5035923;28;20067;-50
2023/06/03 10:58:57;;;;;;;7.20;6.07;;;26.00;99.90;;;;;;5036201;28;20336;-55
2023/06/03 11:01:43;;;;;;;7.90;6.05;;;26.00;99.90;;;;;;5035689;28;20044;-51
2023/06/03 11:04:09;;;;;;;9.23;5.80;;;26.00;99.90;;;;;;5035792;28;20029;-51
2023/06/03 11:06:35;;;;;;;9.98;6.45;;;26.00;99.90;;;;;;5035606;28;20033;-51
2023/06/03 11:09:05;;;;;;;7.72;6.38;;;26.00;99.90;;;;;;5035573;28;20021;-52
2023/06/03 11:11:40;;;;;;;8.15;6.70;;;26.00;99.90;;;;;;5035558;28;20083;-52
2023/06/03 11:14:06;;;;;;;11.93;6.80;;;26.00;99.90;;;;;;5022087;28;20041;-51
2023/06/03 11:17:00;;;;;;;8.60;6.90;;;26.00;99.90;;;;;;5035471;28;20029;-50
2023/06/03 11:19:29;;;;;;;10.40;7.13;;;26.00;99.90;;;;;;5025499;28;20026;-50
2023/06/03 11:21:55;;;;;;;10.00;7.38;;;26.00;99.90;;;;;;5035463;28;20021;-50
2023/06/03 11:24:38;;;;;;;8.50;7.10;;;26.00;99.90;;;;;;5035252;28;20351;-51
2023/06/03 11:27:10;;;;;;;10.60;7.35;;;26.00;99.90;;;;;;5035274;28;20084;-53
2023/06/03 11:29:51;;;;;;;10.02;8.30;;;26.00;99.90;;;;;;5035430;28;20482;-52
2023/06/03 11:32:22;;;;;;;10.30;8.32;;;26.00;99.90;;;;;;5035065;28;20029;-52
2023/06/03 11:34:50;;;;;;;10.27;7.80;;;26.10;99.90;;;;;;5035309;28;20052;-50
2023/06/03 11:37:17;;;;;;;;;;;26.00;99.90;;;;;;5035564;28;20026;-50
2023/06/03 11:40:14;;;;;;;11.18;8.15;;;26.10;99.90;;;;;;5033725;28;19995;-50
2023/06/03 11:42:46;;;;;;;11.80;8.93;;;26.10;99.90;;;;;;5024998;28;20100;-51
2023/06/03 11:45:21;;;;;;;11.38;9.35;;;26.10;99.90;;;;;;5033462;28;20057;-52
2023/06/03 11:48:05;;;;;;;13.55;9.68;;;26.10;99.90;;;;;;5034921;28;20546;-52
2023/06/03 11:50:33;;;;;;;11.38;9.07;;;26.10;99.90;;;;;;5033199;28;20025;-52
2023/06/03 11:53:01;;;;;;;11.70;9.30;;;26.10;99.90;;;;;;5034601;28;20119;-52
2023/06/03 11:55:31;;;;;;;13.70;10.75;;;26.10;99.90;;;;;;5034771;28;20399;-51
2023/06/03 11:58:14;;;;;;;10.90;9.55;;;26.10;99.90;;;;;;5034735;28;20026;-51
2023/06/03 12:00:40;;;;;;;11.27;9.23;;;26.10;99.90;;;;;;5020493;28;20498;-52
2023/06/03 12:03:14;;;;;;;13.32;10.13;;;26.10;99.90;;;;;;5034242;28;20111;-52
2023/06/03 12:05:52;;;;;;;10.70;9.20;;;26.10;99.90;;;;;;5034627;28;20500;-52
2023/06/03 12:08:18;;;;;;;11.65;8.68;;;26.10;99.90;;;;;;5034142;28;20021;-52
2023/06/03 12:10:44;;;;;;;11.90;9.18;;;26.10;99.90;;;;;;5033313;28;20466;-52
2023/06/03 12:13:10;;;;;;;16.98;9.82;;;26.20;99.90;;;;;;5034608;28;20025;-52
2023/06/03 12:15:48;;;;;;;10.00;8.77;;;26.10;99.90;;;;;;5021043;28;20048;-50
2023/06/03 12:18:14;;;;;;;11.07;9.02;;;26.10;99.90;;;;;;5034271;28;20053;-50
2023/06/03 12:20:40;;;;;;;14.65;8.90;;;26.10;99.90;;;;;;5033239;28;20056;-52
2023/06/03 12:23:06;;;;;;;12.25;9.70;;;26.20;99.90;;;;;;5034231;28;20033;-49
2023/06/03 12:25:35;;;;;;;13.48;8.85;;;26.20;99.90;;;;;;5034147;28;20060;-49
2023/06/03 12:28:24;;;;;;;10.82;9.18;;;26.20;99.90;;;;;;5034331;28;20426;-50
2023/06/03 12:30:50;;;;;;;14.02;9.30;;;26.20;99.90;;;;;;5021562;28;20053;-50
2023/06/03 12:33:18;;;;;;;11.93;9.13;;;26.20;99.90;;;;;;5033848;28;20116;-49
2023/06/03 12:35:54;;;;;;;12.95;9.57;;;26.20;99.90;;;;;;5034187;28;20029;-49
2023/06/03 12:38:21;;;;;;;10.98;8.85;;;26.20;99.90;;;;;;5033665;28;20033;-50
2023/06/03 12:40:47;;;;;;;11.95;8.93;;;26.20;99.90;;;;;;5034278;28;20366;-50
2023/06/03 12:43:20;;;;;;;11.63;9.32;;;26.20;99.90;;;;;;5032680;28;20030;-50
2023/06/03 12:45:47;;;;;;;11.85;9.82;;;26.20;99.90;;;;;;5020764;28;20057;-50
2023/06/03 12:48:27;;;;;;;12.47;10.27;;;26.20;99.90;;;;;;5033613;28;20100;-49
2023/06/03 12:50:54;;;;;;;12.55;9.55;;;26.20;99.90;;;;;;5033790;28;20266;-49
2023/06/03 12:53:21;;;;;;;14.20;8.93;;;26.20;99.90;;;;;;5033440;28;20359;-49
2023/06/03 12:55:47;;;;;;;11.73;9.52;;;26.30;99.90;;;;;;5033800;28;20108;-50
2023/06/03 12:58:14;;;;;;;10.77;9.20;;;26.30;99.90;;;;;;5033636;28;20020;-50
2023/06/03 13:00:39;;;;;;;11.57;8.95;;;26.30;99.90;;;;;;5020209;28;20037;-50